createdAt,value
2019-06-08T00:01:36.496Z,100722.20
2019-06-08T00:04:10.112Z,100728.39
2019-06-08T00:06:42.149Z,100729.00
2019-06-08T00:09:14.712Z,100727.12
2019-06-08T00:11:46.500Z,100727.18
2019-06-08T00:14:19.200Z,100730.42
2019-06-08T00:16:53.095Z,100722.33
2019-06-08T00:19:24.795Z,100720.62
2019-06-08T00:21:57.513Z,100721.91
2019-06-08T00:24:29.322Z,100723.36
2019-06-08T00:27:02.057Z,100725.00
2019-06-08T00:29:33.771Z,100722.47
2019-06-08T00:32:06.098Z,100723.63
2019-06-08T00:34:37.801Z,100722.72
2019-06-08T00:37:09.506Z,100723.41
2019-06-08T00:39:41.227Z,100725.94
2019-06-08T00:42:12.929Z,100727.14
2019-06-08T00:44:44.972Z,100723.76
2019-06-08T00:47:20.279Z,100713.41
2019-06-08T00:49:52.367Z,100720.84
2019-06-08T00:52:25.529Z,100724.59
2019-06-08T00:54:57.483Z,100725.78
2019-06-08T00:57:30.162Z,100732.45
2019-06-08T01:00:10.185Z,100737.04
2019-06-08T01:02:37.295Z,100731.19
2019-06-08T01:05:09.079Z,100725.94
2019-06-08T01:07:40.829Z,100726.69
2019-06-08T01:10:12.552Z,100723.73
2019-06-08T01:12:46.199Z,100723.02
2019-06-08T01:15:23.640Z,100726.73
2019-06-08T01:18:03.024Z,100721.93
2019-06-08T01:20:27.721Z,100714.05
2019-06-08T01:23:00.961Z,100718.86
2019-06-08T01:25:34.799Z,100719.89
2019-06-08T01:28:06.568Z,100709.84
2019-06-08T01:30:38.311Z,100705.11
2019-06-08T01:33:10.074Z,100710.34
2019-06-08T01:35:41.833Z,100709.73
2019-06-08T01:38:13.547Z,100704.13
2019-06-08T01:40:45.322Z,100702.77
2019-06-08T01:43:18.763Z,100708.23
2019-06-08T01:45:50.473Z,100708.69
2019-06-08T01:48:22.401Z,100704.62
2019-06-08T01:50:54.412Z,100704.42
2019-06-08T01:53:26.842Z,100702.50
2019-06-08T01:55:58.695Z,100695.66
2019-06-08T01:58:31.439Z,100690.42
2019-06-08T02:01:03.289Z,100686.66
2019-06-08T02:03:35.018Z,100691.86
2019-06-08T02:06:07.736Z,100687.66
2019-06-08T02:08:39.477Z,100686.27
2019-06-08T02:11:11.185Z,100682.59
2019-06-08T02:13:42.892Z,100683.01
2019-06-08T02:16:15.543Z,100679.05
2019-06-08T02:18:51.039Z,100685.65
2019-06-08T02:21:21.064Z,100683.80
2019-06-08T02:23:52.790Z,100686.33
2019-06-08T02:26:27.580Z,100683.08
2019-06-08T02:28:58.999Z,100675.13
2019-06-08T02:31:32.354Z,100670.68
2019-06-08T02:34:04.562Z,100670.65
2019-06-08T02:36:38.161Z,100672.80
2019-06-08T02:39:10.033Z,100671.23
2019-06-08T02:41:41.742Z,100672.98
2019-06-08T02:44:13.444Z,100674.87
2019-06-08T02:46:45.160Z,100674.29
2019-06-08T02:49:16.955Z,100678.42
2019-06-08T02:51:49.012Z,100675.78
2019-06-08T02:54:22.555Z,100671.89
2019-06-08T02:56:55.205Z,100675.92
2019-06-08T02:59:29.262Z,100677.25
2019-06-08T03:02:02.924Z,100677.36
2019-06-08T03:04:38.771Z,100680.23
2019-06-08T03:07:11.772Z,100681.77
2019-06-08T03:09:43.563Z,100682.80
2019-06-08T03:12:16.836Z,100683.94
2019-06-08T03:14:49.484Z,100678.33
2019-06-08T03:17:21.549Z,100678.16
2019-06-08T03:19:53.283Z,100678.84
2019-06-08T03:22:26.760Z,100670.69
2019-06-08T03:24:58.473Z,100674.61
2019-06-08T03:27:30.308Z,100678.66
2019-06-08T03:30:15.209Z,100676.38
2019-06-08T03:32:39.915Z,100681.14
2019-06-08T03:35:09.841Z,100679.25
2019-06-08T03:37:42.984Z,100681.79
2019-06-08T03:40:15.523Z,100681.34
2019-06-08T03:42:49.402Z,100678.25
2019-06-08T03:45:22.238Z,100677.45
2019-06-08T03:47:54.240Z,100675.30
2019-06-08T03:50:25.946Z,100669.36
2019-06-08T03:52:57.654Z,100669.42
2019-06-08T03:55:29.363Z,100668.84
2019-06-08T03:58:01.093Z,100667.72
2019-06-08T04:00:32.867Z,100664.08
2019-06-08T04:03:04.559Z,100674.64
2019-06-08T04:05:37.943Z,100668.05
2019-06-08T04:08:09.683Z,100668.05
2019-06-08T04:10:42.125Z,100666.55
2019-06-08T04:13:14.790Z,100660.74
2019-06-08T04:15:50.220Z,100655.09
2019-06-08T04:18:22.142Z,100650.63
2019-06-08T04:20:53.866Z,100644.42
2019-06-08T04:23:25.556Z,100641.11
2019-06-08T04:25:57.268Z,100636.19
2019-06-08T04:28:29.018Z,100629.60
2019-06-08T04:31:01.010Z,100631.41
2019-06-08T04:33:33.156Z,100633.27
2019-06-08T04:36:04.944Z,100640.37
2019-06-08T04:38:36.650Z,100642.09
2019-06-08T04:41:10.171Z,100632.33
2019-06-08T04:43:42.817Z,100635.38
2019-06-08T04:46:15.388Z,100632.11
2019-06-08T04:48:47.891Z,100633.27
2019-06-08T04:51:20.868Z,100627.81
2019-06-08T04:53:52.607Z,100636.80
2019-06-08T04:56:24.690Z,100644.42
2019-06-08T04:58:56.408Z,100648.17
2019-06-08T05:01:28.108Z,100640.87
2019-06-08T05:04:00.203Z,100646.71
2019-06-08T05:06:31.953Z,100643.01
2019-06-08T05:09:05.235Z,100646.63
2019-06-08T05:11:38.937Z,100645.28
2019-06-08T05:14:11.746Z,100651.27
2019-06-08T05:16:43.437Z,100649.41
2019-06-08T05:19:15.132Z,100651.33
2019-06-08T05:21:49.850Z,100650.20
2019-06-08T05:24:21.868Z,100645.70
2019-06-08T05:26:55.245Z,100652.48
2019-06-08T05:29:26.973Z,100646.13
2019-06-08T05:31:59.876Z,100647.73
2019-06-08T05:34:31.581Z,100646.25
2019-06-08T05:37:03.330Z,100646.87
2019-06-08T05:39:36.486Z,100641.78
2019-06-08T05:42:08.169Z,100644.09
2019-06-08T05:44:39.891Z,100641.02
2019-06-08T05:47:11.597Z,100640.19
2019-06-08T05:49:43.693Z,100639.28
2019-06-08T05:52:15.543Z,100639.59
2019-06-08T05:54:47.940Z,100637.30
2019-06-08T05:57:21.819Z,100633.72
2019-06-08T05:59:53.615Z,100626.20
2019-06-08T06:02:25.329Z,100632.98
2019-06-08T06:04:57.062Z,100633.74
2019-06-08T06:07:28.778Z,100634.65
2019-06-08T06:10:00.539Z,100636.52
2019-06-08T06:12:33.258Z,100634.88
2019-06-08T06:15:05.387Z,100640.91
2019-06-08T06:17:37.200Z,100631.59
2019-06-08T06:20:08.904Z,100639.09
2019-06-08T06:22:42.018Z,100639.59
2019-06-08T06:25:14.081Z,100633.17
2019-06-08T06:27:47.513Z,100629.70
2019-06-08T06:30:21.167Z,100626.28
2019-06-08T06:32:54.554Z,100634.64
2019-06-08T06:35:26.305Z,100640.50
2019-06-08T06:37:58.104Z,100632.42
2019-06-08T06:40:29.790Z,100628.38
2019-06-08T06:43:03.036Z,100624.54
2019-06-08T06:45:34.731Z,100623.81
2019-06-08T06:48:06.499Z,100626.34
2019-06-08T06:50:40.103Z,100630.40
2019-06-08T06:53:11.894Z,100633.03
2019-06-08T06:55:44.765Z,100627.15
2019-06-08T06:58:17.891Z,100629.71
2019-06-08T07:00:49.605Z,100633.13
2019-06-08T07:03:22.320Z,100626.09
2019-06-08T07:05:54.283Z,100619.09
2019-06-08T07:08:26.166Z,100623.61
2019-06-08T07:10:57.905Z,100616.09
2019-06-08T07:13:29.676Z,100619.63
2019-06-08T07:16:17.911Z,100615.53
2019-06-08T07:18:38.275Z,100617.82
2019-06-08T07:21:09.981Z,100618.91
2019-06-08T07:23:41.775Z,100612.75
2019-06-08T07:26:13.478Z,100616.67
2019-06-08T07:28:46.236Z,100612.06
2019-06-08T07:31:18.656Z,100612.83
2019-06-08T07:33:51.850Z,100609.34
2019-06-08T07:36:24.034Z,100618.89
2019-06-08T07:38:56.141Z,100615.21
2019-06-08T07:41:29.022Z,100608.30
2019-06-08T07:44:00.806Z,100610.28
2019-06-08T07:46:33.487Z,100610.28
2019-06-08T07:49:05.204Z,100608.58
2019-06-08T07:51:36.966Z,100596.84
2019-06-08T07:54:08.686Z,100592.30
2019-06-08T07:56:40.854Z,100596.48
2019-06-08T07:59:12.608Z,100590.24
2019-06-08T08:01:44.361Z,100586.76
2019-06-08T08:04:16.140Z,100585.13
2019-06-08T08:06:48.424Z,100588.00
2019-06-08T08:09:20.200Z,100583.81
2019-06-08T08:11:52.927Z,100583.65
2019-06-08T08:14:24.677Z,100579.45
2019-06-08T08:16:57.206Z,100578.16
2019-06-08T08:19:29.558Z,100568.91
2019-06-08T08:22:18.586Z,100572.16
2019-06-08T08:24:35.597Z,100564.91
2019-06-08T08:27:08.397Z,100561.89
2019-06-08T08:29:40.249Z,100567.28
2019-06-08T08:32:13.688Z,100566.55
2019-06-08T08:34:47.527Z,100558.44
2019-06-08T08:37:21.365Z,100559.02
2019-06-08T08:39:53.523Z,100556.26
2019-06-08T08:42:27.084Z,100546.90
2019-06-08T08:45:05.156Z,100535.20
2019-06-08T08:47:34.225Z,100537.08
2019-06-08T08:50:07.439Z,100529.11
2019-06-08T08:52:40.924Z,100536.88
2019-06-08T08:55:14.232Z,100534.48
2019-06-08T08:57:48.413Z,100529.08
2019-06-08T09:00:19.512Z,100531.20
2019-06-08T09:03:10.877Z,100527.52
2019-06-08T09:05:24.754Z,100519.42
2019-06-08T09:07:58.813Z,100517.32
2019-06-08T09:10:29.944Z,100520.00
2019-06-08T09:13:04.732Z,100513.87
2019-06-08T09:15:37.833Z,100511.59
2019-06-08T09:18:09.827Z,100504.98
2019-06-08T09:20:41.627Z,100507.53
2019-06-08T09:23:16.534Z,100505.95
2019-06-08T09:25:48.336Z,100499.56
2019-06-08T09:28:20.380Z,100497.48
2019-06-08T09:30:52.132Z,100494.21
2019-06-08T09:33:24.261Z,100496.45
2019-06-08T09:36:00.866Z,100505.34
2019-06-08T09:38:31.657Z,100496.84
2019-06-08T09:41:05.195Z,100495.06
2019-06-08T09:43:38.798Z,100496.02
2019-06-08T09:46:10.365Z,100486.64
2019-06-08T09:48:42.236Z,100492.95
2019-06-08T09:51:14.423Z,100482.99
2019-06-08T09:53:47.633Z,100479.66
2019-06-08T09:56:20.035Z,100486.14
2019-06-08T09:58:51.798Z,100480.11
2019-06-08T10:01:23.607Z,100475.34
2019-06-08T10:03:56.699Z,100472.52
2019-06-08T10:06:28.842Z,100472.80
2019-06-08T10:09:02.650Z,100465.08
2019-06-08T10:11:37.965Z,100473.58
2019-06-08T10:14:12.339Z,100470.59
2019-06-08T10:16:43.356Z,100469.36
2019-06-08T10:19:15.217Z,100463.08
2019-06-08T10:21:48.187Z,100466.91
2019-06-08T10:24:20.352Z,100463.72
2019-06-08T10:26:54.934Z,100460.85
2019-06-08T10:29:28.009Z,100455.62
2019-06-08T10:32:03.779Z,100456.41
2019-06-08T10:34:38.437Z,100453.42
2019-06-08T10:37:13.263Z,100448.45
2019-06-08T10:39:43.151Z,100445.20
2019-06-08T10:42:18.057Z,100440.22
2019-06-08T10:44:49.917Z,100445.39
2019-06-08T10:47:21.684Z,100443.80
2019-06-08T10:49:53.413Z,100445.86
2019-06-08T10:52:28.015Z,100437.84
2019-06-08T10:55:00.735Z,100440.31
2019-06-08T10:57:33.605Z,100430.91
2019-06-08T11:00:17.971Z,100448.23
2019-06-08T11:02:41.815Z,100436.16
2019-06-08T11:05:14.337Z,100437.01
2019-06-08T11:07:48.002Z,100435.83
2019-06-08T11:10:19.843Z,100434.00
2019-06-08T11:12:52.934Z,100436.98
2019-06-08T11:15:24.674Z,100442.81
2019-06-08T11:18:01.315Z,100426.15
2019-06-08T11:20:31.499Z,100428.88
2019-06-08T11:23:03.982Z,100433.37
2019-06-08T11:25:38.088Z,100426.38
2019-06-08T11:28:14.654Z,100430.11
2019-06-08T11:30:43.287Z,100426.98
2019-06-08T11:33:15.028Z,100427.11
2019-06-08T11:35:47.982Z,100414.81
2019-06-08T11:38:20.233Z,100412.49
2019-06-08T11:40:52.241Z,100416.46
2019-06-08T11:43:24.017Z,100414.45
2019-06-08T11:45:58.267Z,100414.31
2019-06-08T11:48:29.251Z,100400.47
2019-06-08T11:51:02.499Z,100397.41
2019-06-08T11:53:34.502Z,100405.84
2019-06-08T11:56:10.032Z,100406.63
2019-06-08T11:58:41.083Z,100403.36
2019-06-08T12:01:14.781Z,100402.75
2019-06-08T12:03:48.318Z,100400.27
2019-06-08T12:06:19.677Z,100400.06
2019-06-08T12:08:53.472Z,100397.32
2019-06-08T12:11:25.213Z,100392.48
2019-06-08T12:13:58.506Z,100398.45
2019-06-08T12:16:31.315Z,100394.52
2019-06-08T12:19:04.401Z,100395.48
2019-06-08T12:21:36.919Z,100397.70
2019-06-08T12:24:10.259Z,100396.03
2019-06-08T12:26:42.329Z,100395.87
2019-06-08T12:29:14.996Z,100391.06
2019-06-08T12:31:47.487Z,100387.86
2019-06-08T12:34:19.238Z,100388.53
2019-06-08T12:36:50.958Z,100381.09
2019-06-08T12:39:22.685Z,100389.46
2019-06-08T12:41:54.619Z,100384.45
2019-06-08T12:44:29.100Z,100378.83
2019-06-08T12:47:03.650Z,100378.95
2019-06-08T12:49:35.371Z,100378.98
2019-06-08T12:52:08.661Z,100382.75
2019-06-08T12:54:40.613Z,100375.45
2019-06-08T12:57:15.397Z,100361.48
2019-06-08T12:59:45.773Z,100363.72
2019-06-08T13:02:23.588Z,100365.16
2019-06-08T13:04:51.124Z,100364.17
2019-06-08T13:07:22.901Z,100358.30
2019-06-08T13:09:54.720Z,100357.91
2019-06-08T13:12:26.518Z,100357.53
2019-06-08T13:14:58.446Z,100356.14
2019-06-08T13:17:30.287Z,100352.16
2019-06-08T13:20:02.036Z,100353.45
2019-06-08T13:22:35.800Z,100353.30
2019-06-08T13:25:19.367Z,100357.19
2019-06-08T13:27:40.995Z,100347.11
2019-06-08T13:30:17.431Z,100351.14
2019-06-08T13:32:48.232Z,100349.23
2019-06-08T13:35:22.470Z,100348.77
2019-06-08T13:37:54.385Z,100346.56
2019-06-08T13:40:26.172Z,100354.89
2019-06-08T13:42:58.288Z,100352.00
2019-06-08T13:45:33.176Z,100343.56
2019-06-08T13:48:04.895Z,100337.17
2019-06-08T13:50:37.487Z,100340.45
2019-06-08T13:53:10.838Z,100342.56
2019-06-08T13:55:53.209Z,100342.20
2019-06-08T13:58:26.689Z,100336.25
2019-06-08T14:00:56.611Z,100334.11
2019-06-08T14:03:27.833Z,100334.84
2019-06-08T14:05:59.664Z,100323.01
2019-06-08T14:08:33.282Z,100324.16
2019-06-08T14:11:05.195Z,100325.33
2019-06-08T14:13:38.054Z,100317.27
2019-06-08T14:16:11.542Z,100316.03
2019-06-08T14:18:43.674Z,100318.28
2019-06-08T14:21:17.225Z,100325.03
2019-06-08T14:23:49.103Z,100313.97
2019-06-08T14:26:22.835Z,100315.02
2019-06-08T14:28:54.629Z,100308.67
2019-06-08T14:31:29.957Z,100311.31
2019-06-08T14:34:00.401Z,100302.75
2019-06-08T14:36:32.119Z,100301.89
2019-06-08T14:39:04.337Z,100300.31
2019-06-08T14:41:37.476Z,100298.91
2019-06-08T14:44:09.288Z,100292.98
2019-06-08T14:46:41.603Z,100296.53
2019-06-08T14:49:13.465Z,100293.38
2019-06-08T14:51:51.646Z,100286.85
2019-06-08T14:54:27.189Z,100287.55
2019-06-08T14:56:57.759Z,100285.42
2019-06-08T14:59:31.837Z,100284.17
2019-06-08T15:02:03.667Z,100285.84
2019-06-08T15:04:36.962Z,100284.11
2019-06-08T15:07:09.624Z,100282.27
2019-06-08T15:09:41.560Z,100274.97
2019-06-08T15:12:13.283Z,100270.80
2019-06-08T15:14:48.272Z,100268.67
2019-06-08T15:17:20.018Z,100274.13
2019-06-08T15:19:51.707Z,100274.50
2019-06-08T15:22:24.167Z,100266.02
2019-06-08T15:24:58.012Z,100258.55
2019-06-08T15:27:32.012Z,100256.02
2019-06-08T15:30:02.920Z,100251.95
2019-06-08T15:32:35.719Z,100246.91
2019-06-08T15:35:08.341Z,100243.98
2019-06-08T15:37:40.946Z,100246.44
2019-06-08T15:40:12.993Z,100244.56
2019-06-08T15:42:44.725Z,100238.04
2019-06-08T15:45:18.321Z,100240.84
2019-06-08T15:47:50.149Z,100241.52
2019-06-08T15:50:22.243Z,100238.38
2019-06-08T15:52:54.149Z,100229.27
2019-06-08T15:55:27.435Z,100235.57
2019-06-08T15:57:59.371Z,100237.65
2019-06-08T16:00:32.857Z,100239.88
2019-06-08T16:03:04.622Z,100242.71
2019-06-08T16:05:36.388Z,100253.90
2019-06-08T16:08:08.083Z,100254.47
2019-06-08T16:10:40.279Z,100262.12
2019-06-08T16:13:11.997Z,100266.71
2019-06-08T16:15:43.764Z,100261.63
2019-06-08T16:18:15.971Z,100259.82
2019-06-08T16:20:47.734Z,100262.51
2019-06-08T16:23:19.443Z,100257.19
2019-06-08T16:25:51.231Z,100264.81
2019-06-08T16:28:23.436Z,100258.22
2019-06-08T16:30:55.177Z,100224.83
2019-06-08T16:33:27.344Z,100262.62
2019-06-08T16:35:59.935Z,100267.98
2019-06-08T16:38:32.361Z,100280.81
2019-06-08T16:41:04.307Z,100273.61
2019-06-08T16:43:36.006Z,100275.08
2019-06-08T16:46:07.814Z,100269.89
2019-06-08T16:48:39.735Z,100273.51
2019-06-08T16:51:11.538Z,100276.23
2019-06-08T16:53:43.681Z,100271.98
2019-06-08T16:56:15.526Z,100269.94
2019-06-08T16:58:47.288Z,100267.66
2019-06-08T17:01:18.996Z,100266.51
2019-06-08T17:03:50.738Z,100262.00
2019-06-08T17:06:22.444Z,100256.34
2019-06-08T17:08:54.537Z,100261.42
2019-06-08T17:11:26.272Z,100253.53
2019-06-08T17:13:57.966Z,100254.00
2019-06-08T17:16:30.028Z,100261.71
2019-06-08T17:19:03.265Z,100261.64
2019-06-08T17:21:36.259Z,100259.44
2019-06-08T17:24:08.561Z,100257.16
2019-06-08T17:26:40.816Z,100253.80
2019-06-08T17:29:13.441Z,100250.80
2019-06-08T17:31:45.480Z,100254.83
2019-06-08T17:34:20.456Z,100260.77
2019-06-08T17:36:53.932Z,100248.13
2019-06-08T17:39:28.670Z,100259.53
2019-06-08T17:41:59.101Z,100265.77
2019-06-08T17:44:32.181Z,100264.81
2019-06-08T17:47:05.888Z,100259.25
2019-06-08T17:49:38.647Z,100270.22
2019-06-08T17:52:10.710Z,100265.75
2019-06-08T17:54:43.349Z,100268.53
2019-06-08T17:57:15.176Z,100269.42
2019-06-08T17:59:47.973Z,100271.59
2019-06-08T18:02:27.325Z,100275.91
2019-06-08T18:04:54.350Z,100282.59
2019-06-08T18:07:27.812Z,100278.84
2019-06-08T18:09:59.705Z,100284.20
2019-06-08T18:12:31.425Z,100277.16
2019-06-08T18:15:03.185Z,100268.30
2019-06-08T18:17:37.595Z,100276.20
2019-06-08T18:20:09.074Z,100269.51
2019-06-08T18:22:42.819Z,100275.22
2019-06-08T18:25:14.242Z,100278.52
2019-06-08T18:28:02.693Z,100273.70
2019-06-08T18:30:20.608Z,100269.66
2019-06-08T18:32:53.816Z,100269.30
2019-06-08T18:35:27.634Z,100273.86
2019-06-08T18:37:58.982Z,100271.05
2019-06-08T18:40:30.691Z,100276.91
2019-06-08T18:43:02.479Z,100276.09
2019-06-08T18:45:35.167Z,100277.42
2019-06-08T18:48:07.714Z,100275.80
2019-06-08T18:50:40.762Z,100286.39
2019-06-08T18:53:13.880Z,100275.36
2019-06-08T18:55:47.400Z,100278.61
2019-06-08T18:58:24.688Z,100276.01
2019-06-08T19:00:53.008Z,100274.55
2019-06-08T19:03:25.250Z,100285.00
2019-06-08T19:05:57.250Z,100288.78
2019-06-08T19:08:29.396Z,100293.34
2019-06-08T19:11:01.154Z,100293.16
2019-06-08T19:13:33.696Z,100291.02
2019-06-08T19:16:07.507Z,100301.59
2019-06-08T19:18:43.666Z,100301.37
2019-06-08T19:21:12.888Z,100302.86
2019-06-08T19:23:45.435Z,100310.36
2019-06-08T19:26:18.119Z,100309.52
2019-06-08T19:28:53.933Z,100306.12
2019-06-08T19:31:23.296Z,100318.16
2019-06-08T19:33:55.031Z,100325.59
2019-06-08T19:36:28.370Z,100309.53
2019-06-08T19:39:00.380Z,100332.27
2019-06-08T19:41:34.745Z,100338.69
2019-06-08T19:44:07.510Z,100341.13
2019-06-08T19:46:40.348Z,100342.80
2019-06-08T19:49:12.480Z,100352.61
2019-06-08T19:51:45.120Z,100349.37
2019-06-08T19:54:18.525Z,100358.53
2019-06-08T19:56:54.346Z,100355.02
2019-06-08T19:59:24.271Z,100353.74
2019-06-08T20:01:57.356Z,100362.77
2019-06-08T20:04:29.569Z,100364.25
2019-06-08T20:07:03.365Z,100363.21
2019-06-08T20:09:37.520Z,100364.17
2019-06-08T20:12:08.698Z,100364.30
2019-06-08T20:14:41.309Z,100365.59
2019-06-08T20:17:13.250Z,100363.45
2019-06-08T20:19:45.026Z,100372.48
2019-06-08T20:22:18.966Z,100378.66
2019-06-08T20:24:54.016Z,100384.74
2019-06-08T20:27:24.305Z,100381.94
2019-06-08T20:29:58.221Z,100393.17
2019-06-08T20:32:29.623Z,100397.12
2019-06-08T20:35:01.382Z,100390.92
2019-06-08T20:37:33.220Z,100397.04
2019-06-08T20:40:13.305Z,100396.50
2019-06-08T20:42:38.968Z,100405.84
2019-06-08T20:45:11.514Z,100394.16
2019-06-08T20:47:44.329Z,100393.51
2019-06-08T20:50:17.633Z,100392.41
2019-06-08T20:52:52.257Z,100387.34
2019-06-08T20:55:23.375Z,100394.80
2019-06-08T20:57:57.316Z,100404.72
2019-06-08T21:00:28.585Z,100393.86
2019-06-08T21:03:03.113Z,100395.94
2019-06-08T21:05:35.129Z,100406.60
2019-06-08T21:08:08.363Z,100403.94
2019-06-08T21:10:40.563Z,100407.98
2019-06-08T21:13:12.378Z,100412.12
2019-06-08T21:15:44.375Z,100406.33
2019-06-08T21:18:19.243Z,100404.25
2019-06-08T21:20:51.205Z,100401.16
2019-06-08T21:23:23.382Z,100403.63
2019-06-08T21:25:59.829Z,100414.50
2019-06-08T21:28:28.909Z,100420.97
2019-06-08T21:31:02.183Z,100418.05
2019-06-08T21:33:37.832Z,100416.22
2019-06-08T21:36:08.947Z,100422.04
2019-06-08T21:38:41.069Z,100418.49
2019-06-08T21:41:13.808Z,100422.12
2019-06-08T21:43:45.565Z,100421.31
2019-06-08T21:46:17.318Z,100429.67
2019-06-08T21:48:51.458Z,100419.60
2019-06-08T21:51:25.984Z,100416.66
2019-06-08T21:53:58.771Z,100410.88
2019-06-08T21:56:30.039Z,100412.61
2019-06-08T21:59:03.094Z,100412.52
2019-06-08T22:01:34.788Z,100410.69
2019-06-08T22:04:07.761Z,100400.72
2019-06-08T22:06:39.632Z,100396.92
2019-06-08T22:09:11.326Z,100400.56
2019-06-08T22:11:43.089Z,100399.81
2019-06-08T22:14:16.602Z,100392.77
2019-06-08T22:16:48.796Z,100398.75
2019-06-08T22:19:20.909Z,100395.41
2019-06-08T22:21:53.789Z,100392.00
2019-06-08T22:24:27.662Z,100398.82
2019-06-08T22:27:01.758Z,100394.77
2019-06-08T22:29:32.398Z,100391.81
2019-06-08T22:32:07.418Z,100385.53
2019-06-08T22:34:38.684Z,100389.73
2019-06-08T22:37:12.029Z,100391.99
2019-06-08T22:39:43.784Z,100394.75
2019-06-08T22:42:17.591Z,100401.47
2019-06-08T22:44:48.940Z,100395.79
2019-06-08T22:47:20.678Z,100402.89
2019-06-08T22:49:53.700Z,100407.06
2019-06-08T22:52:27.699Z,100411.03
2019-06-08T22:55:04.051Z,100405.81
2019-06-08T22:57:33.011Z,100399.92
2019-06-08T23:00:14.460Z,100396.98
2019-06-08T23:02:38.633Z,100387.78
2019-06-08T23:05:10.434Z,100393.84
2019-06-08T23:07:43.801Z,100390.41
2019-06-08T23:10:17.489Z,100386.78
2019-06-08T23:12:49.272Z,100385.86
2019-06-08T23:15:21.371Z,100387.86
2019-06-08T23:17:53.132Z,100387.94
2019-06-08T23:20:25.003Z,100388.69
2019-06-08T23:22:58.632Z,100383.37
2019-06-08T23:25:30.180Z,100386.70
2019-06-08T23:28:03.355Z,100386.58
2019-06-08T23:30:38.072Z,100384.11
2019-06-08T23:33:11.508Z,100383.05
2019-06-08T23:36:24.422Z,100381.34
2019-06-08T23:38:18.117Z,100378.94
2019-06-08T23:40:49.857Z,100379.48
2019-06-08T23:43:21.671Z,100379.22
2019-06-08T23:45:53.555Z,100380.52
2019-06-08T23:48:27.758Z,100384.46
2019-06-08T23:50:59.505Z,100384.56
2019-06-08T23:53:32.419Z,100385.45
2019-06-08T23:56:05.355Z,100386.48
2019-06-08T23:58:37.607Z,100385.89
